createdAt,value
2023-07-30T00:00:28.612Z,16.56
2023-07-30T00:01:30.495Z,16.56
2023-07-30T00:02:32.225Z,16.55
2023-07-30T00:03:33.949Z,16.57
2023-07-30T00:04:35.547Z,16.58
2023-07-30T00:05:37.472Z,16.59
2023-07-30T00:06:39.056Z,16.59
2023-07-30T00:07:40.620Z,16.61
2023-07-30T00:08:45.251Z,16.60
2023-07-30T00:09:47.018Z,16.58
2023-07-30T00:10:48.675Z,16.58
2023-07-30T00:11:50.357Z,16.59
2023-07-30T00:12:52.091Z,16.59
2023-07-30T00:13:53.700Z,16.60
2023-07-30T00:14:55.278Z,16.59
2023-07-30T00:15:57.071Z,16.60
2023-07-30T00:16:58.671Z,16.60
2023-07-30T00:18:00.298Z,16.62
2023-07-30T00:19:02.133Z,16.61
2023-07-30T00:20:04.056Z,16.58
2023-07-30T00:21:05.698Z,16.57
2023-07-30T00:22:08.050Z,16.55
2023-07-30T00:23:09.932Z,16.55
2023-07-30T00:24:12.057Z,16.54
2023-07-30T00:25:13.677Z,16.55
2023-07-30T00:26:15.419Z,16.55
2023-07-30T00:27:17.243Z,16.55
2023-07-30T00:28:18.921Z,16.55
2023-07-30T00:29:20.730Z,16.57
2023-07-30T00:30:22.978Z,16.58
2023-07-30T00:31:24.588Z,16.58
2023-07-30T00:32:26.935Z,16.61
2023-07-30T00:33:29.322Z,16.61
2023-07-30T00:34:31.336Z,16.62
2023-07-30T00:35:33.400Z,16.62
2023-07-30T00:36:35.044Z,16.63
2023-07-30T00:37:37.251Z,16.64
2023-07-30T00:38:38.857Z,16.64
2023-07-30T00:39:40.442Z,16.65
2023-07-30T00:40:42.926Z,16.66
2023-07-30T00:41:44.809Z,16.67
2023-07-30T00:42:46.847Z,16.68
2023-07-30T00:43:48.488Z,16.68
2023-07-30T00:44:50.838Z,16.70
2023-07-30T00:45:53.082Z,16.70
2023-07-30T00:46:54.883Z,16.70
2023-07-30T00:47:57.124Z,16.70
2023-07-30T00:48:59.366Z,16.70
2023-07-30T00:50:02.166Z,16.70
2023-07-30T00:51:04.337Z,16.71
2023-07-30T00:52:08.898Z,16.71
2023-07-30T00:53:15.139Z,16.70
2023-07-30T00:54:17.408Z,16.70
2023-07-30T00:55:19.686Z,16.71
2023-07-30T00:56:21.906Z,16.71
2023-07-30T00:57:24.305Z,16.72
2023-07-30T00:58:26.352Z,16.74
2023-07-30T00:59:28.715Z,16.73
2023-07-30T01:00:31.428Z,16.75
2023-07-30T01:01:37.848Z,16.77
2023-07-30T01:02:39.596Z,16.77
2023-07-30T01:03:42.501Z,16.78
2023-07-30T01:04:45.097Z,16.80
2023-07-30T01:05:47.051Z,16.80
2023-07-30T01:06:48.705Z,16.79
2023-07-30T01:07:50.334Z,16.80
2023-07-30T01:08:52.103Z,16.80
2023-07-30T01:09:53.925Z,16.79
2023-07-30T01:10:55.859Z,16.79
2023-07-30T01:12:00.192Z,16.76
2023-07-30T01:13:04.344Z,16.75
2023-07-30T01:14:07.010Z,16.74
2023-07-30T01:15:10.322Z,16.74
2023-07-30T01:16:13.139Z,16.72
2023-07-30T01:17:15.186Z,16.71
2023-07-30T01:18:17.163Z,16.73
2023-07-30T01:19:18.999Z,16.73
2023-07-30T01:20:20.606Z,16.74
2023-07-30T01:21:22.879Z,16.73
2023-07-30T01:22:25.041Z,16.73
2023-07-30T01:23:28.064Z,16.73
2023-07-30T01:24:29.725Z,16.72
2023-07-30T01:25:37.329Z,16.70
2023-07-30T01:26:44.511Z,16.71
2023-07-30T01:27:53.307Z,16.70
2023-07-30T01:29:02.018Z,16.69
2023-07-30T01:30:23.024Z,16.66
2023-07-30T01:31:27.589Z,16.63
2023-07-30T01:32:30.832Z,16.63
2023-07-30T01:33:33.477Z,16.63
2023-07-30T01:34:40.155Z,16.62
2023-07-30T01:35:43.948Z,16.63
2023-07-30T01:36:47.088Z,16.64
2023-07-30T01:37:50.441Z,16.63
2023-07-30T01:38:53.084Z,16.64
2023-07-30T01:39:55.309Z,16.66
2023-07-30T01:40:57.372Z,16.68
2023-07-30T01:41:59.007Z,16.69
2023-07-30T01:43:00.683Z,16.71
2023-07-30T01:44:03.449Z,16.72
2023-07-30T01:45:06.895Z,16.74
2023-07-30T01:46:08.551Z,16.75
2023-07-30T01:47:10.419Z,16.75
2023-07-30T01:48:12.156Z,16.75
2023-07-30T01:49:13.753Z,16.76
2023-07-30T01:50:15.537Z,16.74
2023-07-30T01:51:17.471Z,16.72
2023-07-30T01:52:19.061Z,16.72
2023-07-30T01:53:20.720Z,16.70
2023-07-30T01:54:23.011Z,16.71
2023-07-30T01:55:24.660Z,16.70
2023-07-30T01:56:26.960Z,16.70
2023-07-30T01:57:28.624Z,16.71
2023-07-30T01:58:30.224Z,16.71
2023-07-30T01:59:32.062Z,16.70
2023-07-30T02:00:33.713Z,16.70
2023-07-30T02:01:43.132Z,16.68
2023-07-30T02:02:44.800Z,16.69
2023-07-30T02:03:47.254Z,16.68
2023-07-30T02:04:48.981Z,16.68
2023-07-30T02:05:50.984Z,16.67
2023-07-30T02:06:53.435Z,16.68
2023-07-30T02:07:55.052Z,16.67
2023-07-30T02:08:57.184Z,16.67
2023-07-30T02:09:58.964Z,16.65
2023-07-30T02:11:01.042Z,16.66
2023-07-30T02:12:03.630Z,16.64
2023-07-30T02:13:05.466Z,16.64
2023-07-30T02:14:07.365Z,16.62
2023-07-30T02:15:09.337Z,16.62
2023-07-30T02:16:12.092Z,16.62
2023-07-30T02:17:13.699Z,16.61
2023-07-30T02:18:17.236Z,16.59
2023-07-30T02:19:19.171Z,16.59
2023-07-30T02:20:20.751Z,16.56
2023-07-30T02:21:22.992Z,16.57
2023-07-30T02:22:24.669Z,16.56
2023-07-30T02:23:26.801Z,16.55
2023-07-30T02:24:28.411Z,16.54
2023-07-30T02:25:30.504Z,16.53
2023-07-30T02:26:32.227Z,16.51
2023-07-30T02:27:33.919Z,16.49
2023-07-30T02:28:35.580Z,16.48
2023-07-30T02:29:38.097Z,16.48
2023-07-30T02:30:39.701Z,16.45
2023-07-30T02:31:42.373Z,16.45
2023-07-30T02:32:44.100Z,16.43
2023-07-30T02:33:45.831Z,16.43
2023-07-30T02:34:48.470Z,16.42
2023-07-30T02:35:50.110Z,16.41
2023-07-30T02:36:52.044Z,16.39
2023-07-30T02:37:53.628Z,16.38
2023-07-30T02:38:55.254Z,16.38
2023-07-30T02:39:57.108Z,16.37
2023-07-30T02:40:58.805Z,16.37
2023-07-30T02:42:00.484Z,16.37
2023-07-30T02:43:05.337Z,16.37
2023-07-30T02:44:07.012Z,16.38
2023-07-30T02:45:09.070Z,16.38
2023-07-30T02:46:10.906Z,16.39
2023-07-30T02:47:13.635Z,16.40
2023-07-30T02:48:15.215Z,16.39
2023-07-30T02:49:17.130Z,16.39
2023-07-30T02:50:21.114Z,16.38
2023-07-30T02:51:23.327Z,16.39
2023-07-30T02:52:25.086Z,16.39
2023-07-30T02:53:27.133Z,16.39
2023-07-30T02:54:28.809Z,16.41
2023-07-30T02:55:30.447Z,16.39
2023-07-30T02:56:35.302Z,16.40
2023-07-30T02:57:37.144Z,16.40
2023-07-30T02:58:38.739Z,16.41
2023-07-30T02:59:41.942Z,16.41
2023-07-30T03:00:43.651Z,16.44
2023-07-30T03:01:45.680Z,16.44
2023-07-30T03:02:48.186Z,16.46
2023-07-30T03:03:49.948Z,16.47
2023-07-30T03:04:54.759Z,16.47
2023-07-30T03:05:58.485Z,16.48
2023-07-30T03:07:00.149Z,16.48
2023-07-30T03:08:03.115Z,16.50
2023-07-30T03:09:04.764Z,16.50
2023-07-30T03:10:06.973Z,16.52
2023-07-30T03:11:08.610Z,16.52
2023-07-30T03:12:10.719Z,16.52
2023-07-30T03:13:13.050Z,16.52
2023-07-30T03:14:14.733Z,16.52
2023-07-30T03:15:16.774Z,16.52
2023-07-30T03:16:18.561Z,16.53
2023-07-30T03:17:20.387Z,16.53
2023-07-30T03:18:22.118Z,16.53
2023-07-30T03:19:23.735Z,16.55
2023-07-30T03:20:25.372Z,16.55
2023-07-30T03:21:27.140Z,16.55
2023-07-30T03:22:28.734Z,16.56
2023-07-30T03:23:30.571Z,16.56
2023-07-30T03:24:32.805Z,16.58
2023-07-30T03:25:34.539Z,16.58
2023-07-30T03:26:36.426Z,16.61
2023-07-30T03:27:38.579Z,16.61
2023-07-30T03:28:41.225Z,16.62
2023-07-30T03:29:43.425Z,16.63
2023-07-30T03:30:45.062Z,16.63
2023-07-30T03:31:46.824Z,16.64
2023-07-30T03:32:48.446Z,16.63
2023-07-30T03:33:50.359Z,16.64
2023-07-30T03:34:52.144Z,16.64
2023-07-30T03:35:55.523Z,16.63
2023-07-30T03:37:01.674Z,16.62
2023-07-30T03:38:04.340Z,16.63
2023-07-30T03:39:05.937Z,16.64
2023-07-30T03:40:08.839Z,16.64
2023-07-30T03:41:13.317Z,16.63
2023-07-30T03:42:15.346Z,16.65
2023-07-30T03:43:17.267Z,16.63
2023-07-30T03:44:18.994Z,16.64
2023-07-30T03:45:21.156Z,16.65
2023-07-30T03:46:23.698Z,16.65
2023-07-30T03:47:25.426Z,16.64
2023-07-30T03:48:27.137Z,16.63
2023-07-30T03:49:28.865Z,16.62
2023-07-30T03:50:30.507Z,16.62
2023-07-30T03:51:33.823Z,16.63
2023-07-30T03:52:37.234Z,16.62
2023-07-30T03:53:38.873Z,16.63
2023-07-30T03:54:40.894Z,16.63
2023-07-30T03:55:43.352Z,16.63
2023-07-30T03:56:44.990Z,16.62
2023-07-30T03:57:46.837Z,16.62
2023-07-30T03:58:48.736Z,16.62
2023-07-30T03:59:50.339Z,16.63
2023-07-30T04:00:52.255Z,16.63
2023-07-30T04:01:54.239Z,16.65
2023-07-30T04:02:57.754Z,16.65
2023-07-30T04:03:59.426Z,16.65
2023-07-30T04:05:01.106Z,16.66
2023-07-30T04:06:03.447Z,16.65
2023-07-30T04:07:05.382Z,16.66
2023-07-30T04:08:07.196Z,16.68
2023-07-30T04:09:09.187Z,16.68
2023-07-30T04:10:10.863Z,16.65
2023-07-30T04:11:13.194Z,16.65
2023-07-30T04:12:14.784Z,16.65
2023-07-30T04:13:16.983Z,16.64
2023-07-30T04:14:18.657Z,16.64
2023-07-30T04:15:20.282Z,16.65
2023-07-30T04:16:22.300Z,16.67
2023-07-30T04:17:23.969Z,16.67
2023-07-30T04:18:25.682Z,16.68
2023-07-30T04:19:28.036Z,16.68
2023-07-30T04:20:29.632Z,16.69
2023-07-30T04:21:31.483Z,16.72
2023-07-30T04:22:34.042Z,16.74
2023-07-30T04:23:35.741Z,16.80
2023-07-30T04:24:38.414Z,16.85
2023-07-30T04:25:41.886Z,16.90
2023-07-30T04:26:43.611Z,16.92
2023-07-30T04:27:45.352Z,16.95
2023-07-30T04:28:47.134Z,16.96
2023-07-30T04:29:49.363Z,16.97
2023-07-30T04:30:51.914Z,16.98
2023-07-30T04:31:53.707Z,16.99
2023-07-30T04:32:56.018Z,16.99
2023-07-30T04:33:58.351Z,17.00
2023-07-30T04:35:01.032Z,17.00
2023-07-30T04:36:03.552Z,17.00
2023-07-30T04:37:05.875Z,17.01
2023-07-30T04:38:09.150Z,17.02
2023-07-30T04:39:10.937Z,17.02
2023-07-30T04:40:13.344Z,17.03
2023-07-30T04:41:15.517Z,17.04
2023-07-30T04:42:22.696Z,17.04
2023-07-30T04:43:24.366Z,17.01
2023-07-30T04:44:30.439Z,17.00
2023-07-30T04:45:38.297Z,16.99
2023-07-30T04:46:40.038Z,16.99
2023-07-30T04:47:42.033Z,16.98
2023-07-30T04:48:45.211Z,16.99
2023-07-30T04:49:48.537Z,16.99
2023-07-30T04:50:50.211Z,17.01
2023-07-30T04:51:54.086Z,17.00
2023-07-30T04:52:56.128Z,16.98
2023-07-30T04:53:58.772Z,17.00
2023-07-30T04:55:00.461Z,17.02
2023-07-30T04:56:02.134Z,17.03
2023-07-30T04:57:04.382Z,17.04
2023-07-30T04:58:06.502Z,17.04
2023-07-30T04:59:08.607Z,17.03
2023-07-30T05:00:10.786Z,17.03
2023-07-30T05:01:13.127Z,17.04
2023-07-30T05:02:14.777Z,17.06
2023-07-30T05:03:17.192Z,17.06
2023-07-30T05:04:18.882Z,17.09
2023-07-30T05:05:21.054Z,17.10
2023-07-30T05:06:24.114Z,17.13
2023-07-30T05:07:25.756Z,17.13
2023-07-30T05:08:28.068Z,17.17
2023-07-30T05:09:29.684Z,17.18
2023-07-30T05:10:31.452Z,17.21
2023-07-30T05:11:33.546Z,17.23
2023-07-30T05:12:35.272Z,17.23
2023-07-30T05:13:37.489Z,17.25
2023-07-30T05:14:39.157Z,17.25
2023-07-30T05:15:40.796Z,17.27
2023-07-30T05:16:43.196Z,17.25
2023-07-30T05:17:44.868Z,17.28
2023-07-30T05:18:47.135Z,17.31
2023-07-30T05:19:48.760Z,17.34
2023-07-30T05:20:50.497Z,17.35
2023-07-30T05:21:54.524Z,17.37
2023-07-30T05:22:57.546Z,17.42
2023-07-30T05:23:59.202Z,17.47
2023-07-30T05:25:00.769Z,17.52
2023-07-30T05:26:03.209Z,17.55
2023-07-30T05:27:05.211Z,17.61
2023-07-30T05:28:08.385Z,17.64
2023-07-30T05:29:10.173Z,17.65
2023-07-30T05:30:12.176Z,17.67
2023-07-30T05:31:13.956Z,17.70
2023-07-30T05:32:15.664Z,17.73
2023-07-30T05:33:18.029Z,17.74
2023-07-30T05:34:19.728Z,17.78
2023-07-30T05:35:21.814Z,17.72
2023-07-30T05:36:23.445Z,17.71
2023-07-30T05:37:25.105Z,17.71
2023-07-30T05:38:27.034Z,17.72
2023-07-30T05:39:28.745Z,17.71
2023-07-30T05:40:30.364Z,17.74
2023-07-30T05:41:32.068Z,17.75
2023-07-30T05:42:33.856Z,17.77
2023-07-30T05:43:35.463Z,17.83
2023-07-30T05:44:37.067Z,17.90
2023-07-30T05:45:38.757Z,17.93
2023-07-30T05:46:40.506Z,18.01
2023-07-30T05:47:43.005Z,18.06
2023-07-30T05:48:44.839Z,18.10
2023-07-30T05:49:46.803Z,18.17
2023-07-30T05:50:48.527Z,18.20
2023-07-30T05:51:50.207Z,18.26
2023-07-30T05:52:52.089Z,18.33
2023-07-30T05:53:57.041Z,18.36
2023-07-30T05:54:58.708Z,18.43
2023-07-30T05:56:00.448Z,18.50
2023-07-30T05:57:02.229Z,18.57
2023-07-30T05:58:03.853Z,18.61
2023-07-30T05:59:05.593Z,18.66
2023-07-30T06:00:08.291Z,18.69
2023-07-30T06:01:15.956Z,18.73
2023-07-30T06:02:19.106Z,18.74
2023-07-30T06:03:22.344Z,18.76
2023-07-30T06:04:24.004Z,18.82
2023-07-30T06:05:25.663Z,18.85
2023-07-30T06:06:30.409Z,18.93
2023-07-30T06:07:32.477Z,19.01
2023-07-30T06:08:34.626Z,19.10
2023-07-30T06:09:37.125Z,19.15
2023-07-30T06:10:39.662Z,19.15
2023-07-30T06:11:41.559Z,19.12
2023-07-30T06:12:43.595Z,19.06
2023-07-30T06:13:45.276Z,19.02
2023-07-30T06:14:46.927Z,19.09
2023-07-30T06:15:48.716Z,19.17
2023-07-30T06:16:53.444Z,19.22
2023-07-30T06:17:55.164Z,19.28
2023-07-30T06:18:57.192Z,19.40
2023-07-30T06:19:58.816Z,19.50
2023-07-30T06:21:03.231Z,19.45
2023-07-30T06:22:04.969Z,19.41
2023-07-30T06:23:07.058Z,19.41
2023-07-30T06:24:08.664Z,19.47
2023-07-30T06:25:10.349Z,19.50
2023-07-30T06:26:12.111Z,19.50
2023-07-30T06:27:13.958Z,19.43
2023-07-30T06:28:15.645Z,19.37
2023-07-30T06:29:18.354Z,19.34
2023-07-30T06:30:19.974Z,19.32
2023-07-30T06:31:22.165Z,19.26
2023-07-30T06:32:23.841Z,19.25
2023-07-30T06:33:27.218Z,19.25
2023-07-30T06:34:29.107Z,19.20
2023-07-30T06:35:30.700Z,19.15
2023-07-30T06:36:33.002Z,19.11
2023-07-30T06:37:35.660Z,19.15
2023-07-30T06:38:38.672Z,19.16
2023-07-30T06:39:40.434Z,19.22
2023-07-30T06:40:42.259Z,19.22
2023-07-30T06:41:43.907Z,19.24
2023-07-30T06:42:47.023Z,19.23
2023-07-30T06:43:48.741Z,19.22
2023-07-30T06:44:50.431Z,19.20
2023-07-30T06:45:52.215Z,19.21
2023-07-30T06:46:57.332Z,19.20
2023-07-30T06:47:59.287Z,19.21
2023-07-30T06:49:01.993Z,19.17
2023-07-30T06:50:04.921Z,19.10
2023-07-30T06:51:08.873Z,19.02
2023-07-30T06:52:10.479Z,18.99
2023-07-30T06:53:12.644Z,18.98
2023-07-30T06:54:14.333Z,18.98
2023-07-30T06:55:16.548Z,18.95
2023-07-30T06:56:18.865Z,18.98
2023-07-30T06:57:20.494Z,19.05
2023-07-30T06:58:22.281Z,19.14
2023-07-30T06:59:23.868Z,19.17
2023-07-30T07:00:25.475Z,19.19
2023-07-30T07:01:28.194Z,19.21
2023-07-30T07:02:33.035Z,19.22
2023-07-30T07:03:34.794Z,19.23
2023-07-30T07:04:36.951Z,19.26
2023-07-30T07:05:38.558Z,19.25
2023-07-30T07:06:40.280Z,19.24
2023-07-30T07:07:42.203Z,19.24
2023-07-30T07:08:43.844Z,19.28
2023-07-30T07:09:45.418Z,19.29
2023-07-30T07:10:47.112Z,19.38
2023-07-30T07:11:49.117Z,19.49
2023-07-30T07:12:51.053Z,19.51
2023-07-30T07:13:53.798Z,19.54
2023-07-30T07:14:59.247Z,19.59
2023-07-30T07:16:00.969Z,19.72
2023-07-30T07:17:03.345Z,19.84
2023-07-30T07:18:05.041Z,19.96
2023-07-30T07:19:07.935Z,20.12
2023-07-30T07:20:09.925Z,20.27
2023-07-30T07:21:12.073Z,20.28
2023-07-30T07:22:13.902Z,20.31
2023-07-30T07:23:15.553Z,20.27
2023-07-30T07:24:18.354Z,20.24
2023-07-30T07:25:22.665Z,20.30
2023-07-30T07:26:24.444Z,20.27
2023-07-30T07:27:27.058Z,20.34
2023-07-30T07:28:28.711Z,20.33
2023-07-30T07:29:30.407Z,20.31
2023-07-30T07:30:33.036Z,20.30
2023-07-30T07:31:36.100Z,20.30
2023-07-30T07:32:39.924Z,20.27
2023-07-30T07:33:44.643Z,20.22
2023-07-30T07:34:50.035Z,20.20
2023-07-30T07:35:51.946Z,20.15
2023-07-30T07:36:53.581Z,20.20
2023-07-30T07:37:55.201Z,20.13
2023-07-30T07:38:58.096Z,20.11
2023-07-30T07:39:59.677Z,20.14
2023-07-30T07:41:03.241Z,20.15
2023-07-30T07:42:04.999Z,20.17
2023-07-30T07:43:08.151Z,20.18
2023-07-30T07:44:09.781Z,20.19
2023-07-30T07:45:11.933Z,20.15
2023-07-30T07:46:16.439Z,20.14
2023-07-30T07:47:18.624Z,20.07
2023-07-30T07:48:20.488Z,20.13
2023-07-30T07:49:22.216Z,20.16
2023-07-30T07:50:23.916Z,20.14
2023-07-30T07:51:27.259Z,20.12
2023-07-30T07:52:28.930Z,20.11
2023-07-30T07:53:30.526Z,20.06
2023-07-30T07:54:32.809Z,20.09
2023-07-30T07:55:34.399Z,20.12
2023-07-30T07:56:35.986Z,20.13
2023-07-30T07:57:39.012Z,20.12
2023-07-30T07:58:40.851Z,20.14
2023-07-30T07:59:45.986Z,20.22
2023-07-30T08:00:48.551Z,20.31
2023-07-30T08:01:50.356Z,20.35
2023-07-30T08:02:52.232Z,20.38
2023-07-30T08:03:53.974Z,20.38
2023-07-30T08:04:55.773Z,20.33
2023-07-30T08:05:58.452Z,20.40
2023-07-30T08:07:04.230Z,20.46
2023-07-30T08:08:05.892Z,20.55
2023-07-30T08:09:08.361Z,20.70
2023-07-30T08:10:10.341Z,20.76
2023-07-30T08:11:14.689Z,20.83
2023-07-30T08:12:16.822Z,20.86
2023-07-30T08:13:18.591Z,20.95
2023-07-30T08:14:22.253Z,21.04
2023-07-30T08:15:24.230Z,21.06
2023-07-30T08:16:27.058Z,21.14
2023-07-30T08:17:29.102Z,21.21
2023-07-30T08:18:30.812Z,21.30
2023-07-30T08:19:32.943Z,21.38
2023-07-30T08:20:34.647Z,21.48
2023-07-30T08:21:37.189Z,21.55
2023-07-30T08:22:39.028Z,21.53
2023-07-30T08:23:40.889Z,21.57
2023-07-30T08:24:42.912Z,21.51
2023-07-30T08:25:44.776Z,21.47
2023-07-30T08:26:47.959Z,21.46
2023-07-30T08:27:49.583Z,21.45
2023-07-30T08:28:52.118Z,21.48
2023-07-30T08:29:53.758Z,21.48
2023-07-30T08:31:05.190Z,21.47
2023-07-30T08:32:07.254Z,21.43
2023-07-30T08:33:08.896Z,21.43
2023-07-30T08:34:10.547Z,21.44
2023-07-30T08:35:12.355Z,21.46
2023-07-30T08:36:14.096Z,21.48
2023-07-30T08:37:16.073Z,21.51
2023-07-30T08:38:18.581Z,21.59
2023-07-30T08:39:20.475Z,21.63
2023-07-30T08:40:24.708Z,21.63
2023-07-30T08:41:27.479Z,21.65
2023-07-30T08:42:29.238Z,21.72
2023-07-30T08:43:32.372Z,21.78
2023-07-30T08:44:34.082Z,21.82
2023-07-30T08:45:38.281Z,21.90
2023-07-30T08:46:39.980Z,21.90
2023-07-30T08:47:42.683Z,21.99
2023-07-30T08:48:46.490Z,22.06
2023-07-30T08:49:49.292Z,22.15
2023-07-30T08:50:52.170Z,22.23
2023-07-30T08:51:55.231Z,22.27
2023-07-30T08:53:02.337Z,22.29
2023-07-30T08:54:04.622Z,22.32
2023-07-30T08:55:08.054Z,22.31
2023-07-30T08:56:10.443Z,22.27
2023-07-30T08:57:13.303Z,22.28
2023-07-30T08:58:19.023Z,22.29
2023-07-30T08:59:23.261Z,22.27
2023-07-30T09:00:30.804Z,22.26
2023-07-30T09:01:38.982Z,22.27
2023-07-30T09:02:48.279Z,22.32
2023-07-30T09:03:52.020Z,22.39
2023-07-30T09:05:01.899Z,22.48
2023-07-30T09:06:03.714Z,22.54
2023-07-30T09:07:09.191Z,22.59
2023-07-30T09:08:12.070Z,22.67
2023-07-30T09:09:14.447Z,22.68
2023-07-30T09:10:17.383Z,22.69
2023-07-30T09:11:19.271Z,22.75
2023-07-30T09:12:21.002Z,22.77
2023-07-30T09:13:27.253Z,22.84
2023-07-30T09:14:28.922Z,22.91
2023-07-30T09:15:34.870Z,22.95
2023-07-30T09:16:37.006Z,23.05
2023-07-30T09:17:42.499Z,23.14
2023-07-30T09:18:48.707Z,23.19
2023-07-30T09:19:52.820Z,23.24
2023-07-30T09:20:54.568Z,23.30
2023-07-30T09:21:56.580Z,23.30
2023-07-30T09:23:00.286Z,23.29
2023-07-30T09:24:08.458Z,23.25
2023-07-30T09:25:10.733Z,23.21
2023-07-30T09:26:14.025Z,23.17
2023-07-30T09:27:15.646Z,23.08
2023-07-30T09:28:20.220Z,23.02
2023-07-30T09:29:23.491Z,23.03
2023-07-30T09:30:26.978Z,22.99
2023-07-30T09:31:28.820Z,22.91
2023-07-30T09:32:33.080Z,22.89
2023-07-30T09:33:36.345Z,22.84
2023-07-30T09:34:45.631Z,22.79
2023-07-30T09:35:48.039Z,22.76
2023-07-30T09:36:53.041Z,22.68
2023-07-30T09:38:02.374Z,22.70
2023-07-30T09:39:04.994Z,22.75
2023-07-30T09:40:08.595Z,22.78
2023-07-30T09:41:13.543Z,22.80
2023-07-30T09:42:15.549Z,22.82
2023-07-30T09:43:18.540Z,22.83
2023-07-30T09:44:23.199Z,22.77
2023-07-30T09:45:33.999Z,22.75
2023-07-30T09:46:45.607Z,22.77
2023-07-30T09:47:52.993Z,22.80
2023-07-30T09:48:54.669Z,22.78
2023-07-30T09:49:56.816Z,22.74
2023-07-30T09:51:44.663Z,22.69
2023-07-30T09:52:47.855Z,22.72
2023-07-30T09:53:59.275Z,22.71
2023-07-30T09:55:04.365Z,22.70
2023-07-30T09:56:09.879Z,22.72
2023-07-30T09:57:12.439Z,22.74
2023-07-30T09:58:14.402Z,22.78
2023-07-30T09:59:19.238Z,22.84
2023-07-30T10:00:24.513Z,22.92
2023-07-30T10:01:29.306Z,22.92
2023-07-30T10:02:33.946Z,22.94
2023-07-30T10:03:37.307Z,22.96
2023-07-30T10:04:45.173Z,22.95
2023-07-30T10:05:49.065Z,22.91
2023-07-30T10:06:59.723Z,22.84
2023-07-30T10:08:09.873Z,22.79
2023-07-30T10:09:23.888Z,22.83
2023-07-30T10:10:37.202Z,22.85
2023-07-30T10:11:40.995Z,22.83
2023-07-30T10:12:52.579Z,22.82
2023-07-30T10:13:55.684Z,22.81
2023-07-30T10:14:57.903Z,22.79
2023-07-30T10:16:00.291Z,22.77
2023-07-30T10:17:07.930Z,22.71
2023-07-30T10:18:09.736Z,22.63
2023-07-30T10:19:12.083Z,22.58
2023-07-30T10:20:30.112Z,22.50
2023-07-30T10:21:34.022Z,22.46
2023-07-30T10:22:44.758Z,22.47
2023-07-30T10:23:59.878Z,22.43
2023-07-30T10:25:04.982Z,22.40
2023-07-30T10:26:13.576Z,22.33
2023-07-30T10:27:25.882Z,22.29
2023-07-30T10:28:35.425Z,22.26
2023-07-30T10:29:39.380Z,22.29
2023-07-30T10:30:41.380Z,22.32
2023-07-30T10:32:08.138Z,22.31
2023-07-30T10:33:10.783Z,22.29
2023-07-30T10:34:22.158Z,22.31
2023-07-30T10:35:55.039Z,22.35
2023-07-30T10:36:57.296Z,22.35
2023-07-30T10:38:03.317Z,22.37
2023-07-30T10:39:23.287Z,22.42
2023-07-30T10:40:29.635Z,22.48
2023-07-30T10:41:35.997Z,22.49
2023-07-30T10:42:40.526Z,22.53
2023-07-30T10:43:54.822Z,22.56
2023-07-30T10:44:59.383Z,22.35
2023-07-30T10:46:03.109Z,22.35
2023-07-30T10:47:05.369Z,22.36
2023-07-30T10:48:10.253Z,22.35
2023-07-30T10:49:14.479Z,22.30
2023-07-30T10:50:18.061Z,22.30
2023-07-30T10:51:22.223Z,22.26
2023-07-30T10:52:29.497Z,22.24
2023-07-30T10:53:37.243Z,22.25
2023-07-30T10:54:39.425Z,22.26
2023-07-30T10:55:41.496Z,22.27
2023-07-30T10:56:46.969Z,22.29
2023-07-30T10:58:09.667Z,22.30
2023-07-30T10:59:16.268Z,22.28
2023-07-30T11:00:18.683Z,22.28
2023-07-30T11:01:20.570Z,22.30
2023-07-30T11:02:23.438Z,22.30
2023-07-30T11:03:29.262Z,22.33
2023-07-30T11:04:35.968Z,22.38
2023-07-30T11:05:42.018Z,22.44
2023-07-30T11:06:51.958Z,22.47
2023-07-30T11:07:53.676Z,22.51
2023-07-30T11:08:55.464Z,22.52
2023-07-30T11:10:03.048Z,22.54
2023-07-30T11:11:06.794Z,22.50
2023-07-30T11:12:10.070Z,22.47
2023-07-30T11:13:13.144Z,22.49
2023-07-30T11:14:59.139Z,22.50
2023-07-30T11:16:00.840Z,22.45
2023-07-30T11:17:03.736Z,22.46
2023-07-30T11:18:08.161Z,22.45
2023-07-30T11:19:10.158Z,22.39
2023-07-30T11:20:29.062Z,22.38
2023-07-30T11:21:30.666Z,22.38
2023-07-30T11:22:38.591Z,22.39
2023-07-30T11:23:43.404Z,22.39
2023-07-30T11:24:45.417Z,22.40
2023-07-30T11:25:53.479Z,22.35
2023-07-30T11:27:02.968Z,22.34
2023-07-30T11:28:04.857Z,22.32
2023-07-30T11:29:22.617Z,22.30
2023-07-30T11:30:24.286Z,22.30
2023-07-30T11:31:28.303Z,22.34
2023-07-30T11:32:31.505Z,22.39
2023-07-30T11:33:36.609Z,22.39
2023-07-30T11:34:41.494Z,22.45
2023-07-30T11:35:46.561Z,22.51
2023-07-30T11:36:53.364Z,22.61
2023-07-30T11:37:55.107Z,22.70
2023-07-30T11:38:58.306Z,22.80
2023-07-30T11:40:00.959Z,22.93
2023-07-30T11:41:06.989Z,23.07
2023-07-30T11:42:22.141Z,23.11
2023-07-30T11:43:24.924Z,23.18
2023-07-30T11:44:50.617Z,23.20
2023-07-30T11:46:15.720Z,23.18
2023-07-30T11:47:33.414Z,23.22
2023-07-30T11:48:37.194Z,23.24
2023-07-30T11:50:57.220Z,23.30
2023-07-30T11:52:13.418Z,23.36
2023-07-30T11:53:15.865Z,23.38
2023-07-30T11:54:24.374Z,23.47
2023-07-30T11:55:39.419Z,23.56
2023-07-30T11:56:42.308Z,23.68
2023-07-30T11:57:44.004Z,23.73
2023-07-30T11:58:47.320Z,23.72
2023-07-30T11:59:49.204Z,23.78
2023-07-30T12:00:50.929Z,23.85
2023-07-30T12:01:53.616Z,23.90
2023-07-30T12:02:55.463Z,23.82
2023-07-30T12:04:00.584Z,23.88
2023-07-30T12:05:12.297Z,23.95
2023-07-30T12:06:14.514Z,24.04
2023-07-30T12:07:26.009Z,24.16
2023-07-30T12:08:29.043Z,24.24
2023-07-30T12:09:37.060Z,24.29
2023-07-30T12:10:45.472Z,24.38
2023-07-30T12:11:50.264Z,24.51
2023-07-30T12:12:59.849Z,24.60
2023-07-30T12:14:04.735Z,24.71
2023-07-30T12:15:15.992Z,24.79
2023-07-30T12:16:21.822Z,24.90
2023-07-30T12:17:26.890Z,24.98
2023-07-30T12:18:33.270Z,24.94
2023-07-30T12:19:38.978Z,24.91
2023-07-30T12:20:42.165Z,24.77
2023-07-30T12:21:44.849Z,24.60
2023-07-30T12:22:47.082Z,24.49
2023-07-30T12:23:49.434Z,24.34
2023-07-30T12:24:51.441Z,24.27
2023-07-30T12:25:58.171Z,24.28
2023-07-30T12:27:00.122Z,24.28
2023-07-30T12:28:02.645Z,24.29
2023-07-30T12:29:04.421Z,24.35
2023-07-30T12:30:07.240Z,24.48
2023-07-30T12:31:08.827Z,24.59
2023-07-30T12:32:10.477Z,24.69
2023-07-30T12:33:12.573Z,24.61
2023-07-30T12:34:14.822Z,24.57
2023-07-30T12:35:16.792Z,24.58
2023-07-30T12:36:18.554Z,24.63
2023-07-30T12:37:20.332Z,24.68
2023-07-30T12:38:24.503Z,24.69
2023-07-30T12:39:26.354Z,24.75
2023-07-30T12:40:48.017Z,24.84
2023-07-30T12:41:54.373Z,24.97
2023-07-30T12:42:57.134Z,25.10
2023-07-30T12:43:58.874Z,25.14
2023-07-30T12:45:00.636Z,25.18
2023-07-30T12:46:03.342Z,25.29
2023-07-30T12:47:08.930Z,25.31
2023-07-30T12:48:12.449Z,25.35
2023-07-30T12:49:23.475Z,25.36
2023-07-30T12:50:25.666Z,25.27
2023-07-30T12:51:30.351Z,25.17
2023-07-30T12:52:44.536Z,24.98
2023-07-30T12:53:49.175Z,24.81
2023-07-30T12:54:51.990Z,24.64
2023-07-30T12:55:53.662Z,24.54
2023-07-30T12:56:55.393Z,24.44
2023-07-30T12:57:59.846Z,24.32
2023-07-30T12:59:09.288Z,24.23
2023-07-30T13:00:12.081Z,24.14
2023-07-30T13:01:13.831Z,23.96
2023-07-30T13:02:15.639Z,23.89
2023-07-30T13:03:24.406Z,23.82
2023-07-30T13:04:28.676Z,23.74
2023-07-30T13:05:33.217Z,23.76
2023-07-30T13:06:35.160Z,23.79
2023-07-30T13:07:39.961Z,23.78
2023-07-30T13:08:43.994Z,23.78
2023-07-30T13:10:08.444Z,23.74
2023-07-30T13:11:30.378Z,23.69
2023-07-30T13:12:44.578Z,23.62
2023-07-30T13:13:49.802Z,23.57
2023-07-30T13:15:09.768Z,23.52
2023-07-30T13:16:39.919Z,23.47
2023-07-30T13:18:04.676Z,23.36
2023-07-30T13:19:12.060Z,23.24
2023-07-30T13:20:41.432Z,23.13
2023-07-30T13:22:07.430Z,22.99
2023-07-30T13:23:13.350Z,22.91
2023-07-30T13:24:14.936Z,22.83
2023-07-30T13:25:17.021Z,22.77
2023-07-30T13:26:22.404Z,22.70
2023-07-30T13:27:24.063Z,22.62
2023-07-30T13:28:28.409Z,22.56
2023-07-30T13:29:30.059Z,22.42
2023-07-30T13:30:32.577Z,22.31
2023-07-30T13:31:34.468Z,22.19
2023-07-30T13:32:40.356Z,22.10
2023-07-30T13:33:42.276Z,21.99
2023-07-30T13:34:44.811Z,21.82
2023-07-30T13:35:46.818Z,21.76
2023-07-30T13:36:48.482Z,21.65
2023-07-30T13:37:50.185Z,21.50
2023-07-30T13:38:52.171Z,21.30
2023-07-30T13:39:53.786Z,21.17
2023-07-30T13:41:38.786Z,20.74
2023-07-30T13:42:48.305Z,20.37